world map with FAB marked

FAB - Airport

This information may not be accurate or current and is not valid for navigation or flight planning. No warranty of fitness for any purpose is made or implied.

flag of Englandflag of United Kingdom

Donate via PayPal

Additional information is available on the NEW Great Circle Mapper

Location
City:  Farnborough, Hampshire, England, United Kingdom
ICAO / IATA:EGLF / FAB

Details
Type:Airport (Aerodrome, Airfield)
Use:Public/Civil, Military
Latitude:51°16'33"N (51.275833)
Longitude:0°46'35"W (-0.776332)
Datum:WGS 1984
Elevation:238 ft (73 m)
Runways:1
Longest:8005 × 148 ft (2440 × 45 m)

Time
Timezone:UTC+0 (DST+3)
Local Time:

Weather
METAR:EGLF  190720Z 00000KT CAVOK 16/12 Q1019
TAF:EGLF  (expired)

Related Locations
Nearby:
Farthest:NZDC: 11889 mi / 19133 km
Dunedin [City Heliport], OTA, NZ

Find:

   beyond  
but within

Other Information
Maps:
Sources:

  


 


Great Circle Mapper   Great Circle Mapper
Great Circle Mapper FAQ   Great Circle Mapper FAQ
  Karl's Home Page
KLSē   KLSē Home
   GC on Facebook
Airlines of the World   Airlines of the World
Donate via PayPal


Copyright © 2004-2018, Karl L. Swartz. All rights reserved.
All trademarks mentioned herein belong to their respective owners.

Please see credits for attribution and copyright information.

Karl Swartz <karl@kls2.com>
  Powered by FreeBSD
Valid HTML 4.01!
Labeled with ICRA
hCard Microformat
Geo Microformat